Time;durP1;ratioP1;P1;durP2;ratioP2;P2;SDS_P1;SDS_P2;PMS_P1;PMS_P2;Temp;Humidity;BMP_temperature;BMP_pressure;BME280_temperature;BME280_humidity;BME280_pressure;Samples;Min_cycle;Max_cycle;Signal;HPM_P1;HPM_P2
2023/02/06 00:01:33;;;;;;;4.85;2.45;;;3.60;99.90;;;;;;5013243;28;20034;-71
2023/02/06 00:04:00;;;;;;;6.90;3.03;;;3.50;99.90;;;;;;4992705;28;20100;-70
2023/02/06 00:06:25;;;;;;;4.05;2.95;;;3.40;99.90;;;;;;5013156;28;20097;-71
2023/02/06 00:08:51;;;;;;;8.80;2.92;;;3.40;99.90;;;;;;4993309;28;20026;-69
2023/02/06 00:11:17;;;;;;;5.95;2.67;;;3.40;99.90;;;;;;5012939;28;20393;-70
2023/02/06 00:13:44;;;;;;;6.38;2.88;;;3.40;99.90;;;;;;5011824;28;20034;-70
2023/02/06 00:16:29;;;;;;;4.97;2.97;;;3.40;99.90;;;;;;5011662;28;20029;-70
2023/02/06 00:18:56;;;;;;;3.33;1.92;;;3.40;99.90;;;;;;5010459;28;20120;-70
2023/02/06 00:21:26;;;;;;;6.13;2.72;;;3.40;99.90;;;;;;5013041;28;20497;-70
2023/02/06 00:23:57;;;;;;;5.07;2.42;;;3.40;99.90;;;;;;5010239;28;20029;-70
2023/02/06 00:26:24;;;;;;;4.72;2.78;;;3.40;99.90;;;;;;5005377;28;20058;-70
2023/02/06 00:28:50;;;;;;;8.50;2.33;;;3.40;99.90;;;;;;4994279;28;20370;-71
2023/02/06 00:31:16;;;;;;;6.75;2.47;;;3.30;99.90;;;;;;5012825;28;20097;-70
2023/02/06 00:33:42;;;;;;;4.85;2.38;;;3.40;99.90;;;;;;5011423;28;20114;-70
2023/02/06 00:36:08;;;;;;;3.33;1.90;;;3.40;99.90;;;;;;5012926;28;20030;-70
2023/02/06 00:38:36;;;;;;;3.63;2.38;;;3.40;99.90;;;;;;5012412;28;20018;-69
2023/02/06 00:41:02;;;;;;;4.18;2.25;;;3.30;99.90;;;;;;5012239;28;20033;-70
2023/02/06 00:43:28;;;;;;;5.28;2.42;;;3.30;99.90;;;;;;4994777;28;20037;-70
2023/02/06 00:45:55;;;;;;;5.72;2.65;;;3.20;99.90;;;;;;5009815;28;20025;-70
2023/02/06 00:48:23;;;;;;;5.38;2.30;;;3.20;99.90;;;;;;4975878;28;20022;-70
2023/02/06 00:50:51;;;;;;;5.13;2.25;;;3.20;99.90;;;;;;4993282;28;20048;-70
2023/02/06 00:53:17;;;;;;;5.25;2.28;;;3.10;99.90;;;;;;4994956;28;20042;-70
2023/02/06 00:55:42;;;;;;;5.22;3.03;;;3.20;99.90;;;;;;5008731;28;20150;-70
2023/02/06 00:58:08;;;;;;;4.75;2.40;;;3.10;99.90;;;;;;5012403;28;20112;-70
2023/02/06 01:00:34;;;;;;;4.88;2.13;;;3.00;99.90;;;;;;5008259;28;20505;-70
2023/02/06 01:03:00;;;;;;;6.10;2.55;;;2.90;99.90;;;;;;5011919;28;20497;-71
2023/02/06 01:05:27;;;;;;;4.50;2.70;;;2.80;99.90;;;;;;4994281;28;20125;-70
2023/02/06 01:07:52;;;;;;;4.05;2.35;;;2.80;99.90;;;;;;5012154;28;20022;-70
2023/02/06 01:10:18;;;;;;;4.07;2.58;;;2.70;99.90;;;;;;4994147;28;20072;-70
2023/02/06 01:12:44;;;;;;;3.70;1.85;;;2.70;99.90;;;;;;5012199;28;20030;-70
2023/02/06 01:15:12;;;;;;;5.05;2.53;;;2.70;99.90;;;;;;4993678;28;20508;-70
2023/02/06 01:17:39;;;;;;;6.57;2.88;;;2.70;99.90;;;;;;4994635;28;20031;-70
2023/02/06 01:20:10;;;;;;;4.35;2.47;;;2.50;99.90;;;;;;4994035;28;20441;-70
2023/02/06 01:22:36;;;;;;;5.95;2.30;;;2.50;99.90;;;;;;4994484;28;20037;-70
2023/02/06 01:25:03;;;;;;;5.18;3.28;;;2.50;99.90;;;;;;5008703;28;20042;-70
2023/02/06 01:27:30;;;;;;;4.85;3.10;;;2.40;99.90;;;;;;5011980;28;20116;-70
2023/02/06 01:29:55;;;;;;;4.60;2.30;;;2.40;99.90;;;;;;5010490;28;20064;-70
2023/02/06 01:32:21;;;;;;;6.07;3.00;;;2.50;99.90;;;;;;5011738;28;20116;-70
2023/02/06 01:34:47;;;;;;;4.00;2.50;;;2.50;99.90;;;;;;5008740;28;20034;-70
2023/02/06 01:37:13;;;;;;;5.95;2.13;;;2.50;99.90;;;;;;5011827;28;20037;-70
2023/02/06 01:39:39;;;;;;;5.95;3.42;;;2.50;99.90;;;;;;5009082;28;20034;-70
2023/02/06 01:42:04;;;;;;;3.42;2.28;;;2.40;99.90;;;;;;5011566;28;20433;-70
2023/02/06 01:44:32;;;;;;;4.88;2.95;;;2.40;99.90;;;;;;4992986;28;20032;-70
2023/02/06 01:46:58;;;;;;;4.10;2.58;;;2.40;99.90;;;;;;5011445;28;20058;-70
2023/02/06 01:49:33;;;;;;;8.38;2.65;;;2.30;99.90;;;;;;5008625;28;20108;-70
2023/02/06 01:52:24;;;;;;;3.53;2.33;;;2.30;99.90;;;;;;4994221;28;20030;-70
2023/02/06 01:54:56;;;;;;;5.32;3.22;;;2.30;99.90;;;;;;5008341;28;20508;-70
2023/02/06 01:57:24;;;;;;;4.88;3.05;;;2.30;99.90;;;;;;5003676;28;20045;-69
2023/02/06 01:59:57;;;;;;;6.60;2.88;;;2.30;99.90;;;;;;5008565;28;20036;-69
2023/02/06 02:02:27;;;;;;;5.80;3.28;;;2.30;99.90;;;;;;4986477;28;20121;-69
2023/02/06 02:04:54;;;;;;;7.20;3.92;;;2.20;99.90;;;;;;5002772;28;20042;-70
2023/02/06 02:07:30;;;;;;;7.18;4.05;;;2.20;99.90;;;;;;4985329;28;20022;-69
2023/02/06 02:09:56;;;;;;;4.60;2.38;;;2.10;99.90;;;;;;5009882;28;20040;-70
2023/02/06 02:12:22;;;;;;;8.60;3.63;;;2.10;99.90;;;;;;4993394;28;20033;-70
2023/02/06 02:14:51;;;;;;;3.50;2.53;;;2.20;99.90;;;;;;5007779;28;20065;-69
2023/02/06 02:17:42;;;;;;;6.30;3.20;;;2.20;99.90;;;;;;4993651;28;20498;-70
2023/02/06 02:21:01;;;;;;;6.72;2.60;;;2.20;99.90;;;;;;4993948;28;20048;-70
2023/02/06 02:23:51;;;;;;;7.30;3.53;;;2.20;99.90;;;;;;4981417;28;20430;-70
2023/02/06 02:27:09;;;;;;;4.97;2.23;;;2.00;99.90;;;;;;5010724;28;20080;-70
2023/02/06 02:30:14;;;;;;;3.58;2.40;;;2.00;99.90;;;;;;4994103;28;20289;-70
2023/02/06 02:33:32;;;;;;;6.47;3.60;;;2.00;99.90;;;;;;5005379;28;20033;-70
2023/02/06 02:37:03;;;;;;;2.92;2.13;;;2.00;99.90;;;;;;5007901;28;20048;-70
2023/02/06 02:39:46;;;;;;;4.53;2.60;;;1.90;99.90;;;;;;4896064;29;20047;-70
2023/02/06 02:42:37;;;;;;;3.67;2.67;;;1.80;99.90;;;;;;4891079;29;20080;-70
2023/02/06 02:45:22;;;;;;;3.50;2.42;;;1.80;99.90;;;;;;4891809;29;20039;-70
2023/02/06 02:48:09;;;;;;;6.20;3.20;;;1.70;99.90;;;;;;4904270;29;20095;-70
2023/02/06 02:50:37;;;;;;;4.55;2.50;;;1.70;99.90;;;;;;4904686;29;20108;-70
2023/02/06 02:53:05;;;;;;;5.10;3.33;;;1.70;99.90;;;;;;4890038;29;20417;-70
2023/02/06 02:55:31;;;;;;;6.15;3.45;;;1.70;99.90;;;;;;4890161;29;20567;-70
2023/02/06 02:58:10;;;;;;;4.55;2.55;;;1.60;99.90;;;;;;4905092;29;20040;-69
2023/02/06 03:00:55;;;;;;;4.63;3.28;;;1.60;99.90;;;;;;4901918;29;20051;-70
2023/02/06 03:03:22;;;;;;;7.18;2.15;;;1.60;99.90;;;;;;4886516;29;20047;-70
2023/02/06 03:06:34;;;;;;;3.40;2.60;;;1.60;99.90;;;;;;4904303;29;20469;-70
2023/02/06 03:09:39;;;;;;;4.90;1.95;;;1.60;99.90;;;;;;4919286;29;20033;-70
2023/02/06 03:12:20;;;;;;;9.43;3.63;;;1.70;99.90;;;;;;4911266;29;20039;-70
2023/02/06 03:15:14;;;;;;;4.80;3.20;;;1.70;99.90;;;;;;4999686;28;20045;-70
2023/02/06 03:17:59;;;;;;;5.63;2.72;;;1.70;99.90;;;;;;5004957;28;20037;-70
2023/02/06 03:20:27;;;;;;;3.97;2.60;;;1.70;99.90;;;;;;4997282;28;20025;-70
2023/02/06 03:22:55;;;;;;;5.53;2.55;;;1.70;99.90;;;;;;4996551;28;20061;-70
2023/02/06 03:25:37;;;;;;;4.38;2.38;;;1.70;99.90;;;;;;4976996;28;20101;-70
2023/02/06 03:28:10;;;;;;;4.68;2.55;;;1.70;99.90;;;;;;5010532;28;20042;-70
2023/02/06 03:30:40;;;;;;;5.00;3.10;;;1.70;99.90;;;;;;4992874;28;20029;-70
2023/02/06 03:33:09;;;;;;;5.63;3.15;;;1.70;99.90;;;;;;4975032;28;20049;-70
2023/02/06 03:35:37;;;;;;;6.38;3.38;;;1.70;99.90;;;;;;4985564;28;20038;-70
2023/02/06 03:38:06;;;;;;;4.28;2.17;;;1.60;99.90;;;;;;4994356;28;20087;-70
2023/02/06 03:40:32;;;;;;;6.55;2.70;;;1.60;99.90;;;;;;4996704;28;20038;-70
2023/02/06 03:43:02;;;;;;;2.97;1.98;;;1.50;99.90;;;;;;4990770;28;20042;-70
2023/02/06 03:45:38;;;;;;;11.32;3.13;;;1.50;99.90;;;;;;4991992;28;20042;-70
2023/02/06 03:48:13;;;;;;;5.68;3.72;;;1.50;99.90;;;;;;5010528;28;20038;-70
2023/02/06 03:50:41;;;;;;;4.57;2.00;;;1.50;99.90;;;;;;4996401;28;20026;-69
2023/02/06 03:53:10;;;;;;;4.38;3.33;;;1.40;99.90;;;;;;4993881;28;20034;-70
2023/02/06 03:55:39;;;;;;;6.45;3.08;;;1.30;99.90;;;;;;4996099;28;20492;-70
2023/02/06 03:58:10;;;;;;;4.88;2.33;;;1.30;99.90;;;;;;4995539;28;20405;-70
2023/02/06 04:00:38;;;;;;;4.43;2.42;;;1.30;99.90;;;;;;4996714;28;20500;-70
2023/02/06 04:03:04;;;;;;;6.93;3.30;;;1.20;99.90;;;;;;4995219;28;20049;-69
2023/02/06 04:05:30;;;;;;;6.35;3.95;;;1.20;99.90;;;;;;4995611;28;20476;-70
2023/02/06 04:07:56;;;;;;;9.45;4.53;;;1.30;99.90;;;;;;5011090;28;20033;-70
2023/02/06 04:10:22;;;;;;;5.38;2.83;;;1.40;99.90;;;;;;5013249;28;20030;-70
2023/02/06 04:12:48;;;;;;;7.28;2.67;;;1.30;99.90;;;;;;4995134;28;20095;-70
2023/02/06 04:15:14;;;;;;;5.30;2.90;;;1.40;99.90;;;;;;5012860;28;20612;-70
2023/02/06 04:17:40;;;;;;;4.57;2.78;;;1.30;99.90;;;;;;5012075;28;20555;-70
2023/02/06 04:20:07;;;;;;;3.10;2.40;;;1.30;99.90;;;;;;5013134;28;20038;-70
2023/02/06 04:22:33;;;;;;;24.60;2.05;;;1.30;99.90;;;;;;4994230;28;20041;-70
2023/02/06 04:24:59;;;;;;;4.57;2.63;;;1.40;99.90;;;;;;5012582;28;20051;-70
2023/02/06 04:27:25;;;;;;;6.95;2.38;;;1.40;99.90;;;;;;5010819;28;20030;-70
2023/02/06 04:29:51;;;;;;;7.43;3.45;;;1.40;99.90;;;;;;4994422;28;20030;-70
2023/02/06 04:32:16;;;;;;;6.90;2.58;;;1.40;99.90;;;;;;5010474;28;20367;-70
2023/02/06 04:34:42;;;;;;;5.45;4.25;;;1.50;99.90;;;;;;5012248;28;20748;-70
2023/02/06 04:37:11;;;;;;;4.20;1.95;;;1.50;99.90;;;;;;5011217;28;20046;-70
2023/02/06 04:39:37;;;;;;;7.75;3.65;;;1.60;99.90;;;;;;4995747;28;20080;-70
2023/02/06 04:42:03;;;;;;;7.47;2.83;;;1.70;99.90;;;;;;4994517;28;20120;-70
2023/02/06 04:44:29;;;;;;;4.47;2.47;;;1.70;99.90;;;;;;5003707;23;20054;-77
2023/02/06 04:46:56;;;;;;;4.60;2.65;;;1.80;99.90;;;;;;4993018;28;20220;-78
2023/02/06 04:49:22;;;;;;;4.13;2.25;;;1.70;99.90;;;;;;4990992;28;20138;-77
2023/02/06 04:51:47;;;;;;;5.00;2.67;;;1.70;99.90;;;;;;4967296;28;20133;-77
2023/02/06 04:54:16;;;;;;;3.30;1.85;;;1.60;99.90;;;;;;4985168;28;20039;-77
2023/02/06 04:56:43;;;;;;;6.65;3.10;;;1.60;99.90;;;;;;4951609;28;20037;-77
2023/02/06 04:59:09;;;;;;;3.58;2.33;;;1.70;99.90;;;;;;4968141;28;20410;-77
2023/02/06 05:01:35;;;;;;;5.82;2.33;;;1.70;99.90;;;;;;4967203;28;20359;-77
2023/02/06 05:04:01;;;;;;;6.95;3.10;;;1.70;99.90;;;;;;4967729;28;20042;-77
2023/02/06 05:06:28;;;;;;;3.58;2.08;;;1.70;99.90;;;;;;4984434;28;20023;-77
2023/02/06 05:08:54;;;;;;;4.20;2.63;;;1.60;99.90;;;;;;4985274;28;20395;-78
2023/02/06 05:11:20;;;;;;;5.07;2.72;;;1.70;99.90;;;;;;4973164;28;20030;-77
2023/02/06 05:13:46;;;;;;;13.13;2.70;;;1.90;99.90;;;;;;4972335;28;20039;-78
2023/02/06 05:16:14;;;;;;;6.63;2.25;;;2.00;99.90;;;;;;4984309;28;20066;-77
2023/02/06 05:18:41;;;;;;;3.80;2.03;;;2.00;99.90;;;;;;4955408;28;20031;-77
2023/02/06 05:21:07;;;;;;;4.93;2.92;;;2.10;99.90;;;;;;4982466;28;20037;-77
2023/02/06 05:23:33;;;;;;;4.07;2.67;;;2.10;99.90;;;;;;4987854;28;20407;-77
2023/02/06 05:25:59;;;;;;;5.47;3.05;;;2.20;99.90;;;;;;4981208;28;20086;-77
2023/02/06 05:28:28;;;;;;;5.88;2.15;;;2.10;99.90;;;;;;4965382;28;20034;-78
2023/02/06 05:30:55;;;;;;;3.65;2.53;;;2.20;99.90;;;;;;4963497;28;20046;-77
2023/02/06 05:33:22;;;;;;;4.30;2.53;;;2.20;99.90;;;;;;4946078;28;20023;-78
2023/02/06 05:35:47;;;;;;;4.05;2.42;;;2.30;99.90;;;;;;4940374;29;20422;-77
2023/02/06 05:38:13;;;;;;;7.20;2.80;;;2.30;99.90;;;;;;4989000;28;20101;-77
2023/02/06 05:40:39;;;;;;;4.55;2.85;;;2.30;99.90;;;;;;4963130;28;20058;-77
2023/02/06 05:43:05;;;;;;;8.32;3.15;;;2.30;99.90;;;;;;4989428;28;20034;-77
2023/02/06 05:45:30;;;;;;;3.53;2.20;;;2.30;99.90;;;;;;4979759;28;20035;-77
2023/02/06 05:47:56;;;;;;;3.33;2.40;;;2.30;99.90;;;;;;4971303;28;20077;-77
2023/02/06 05:50:22;;;;;;;4.90;2.13;;;2.30;99.90;;;;;;4977049;28;20042;-75
2023/02/06 05:52:47;;;;;;;5.88;3.08;;;2.30;99.90;;;;;;4979210;28;20045;-77
2023/02/06 05:55:15;;;;;;;4.78;3.00;;;2.30;99.90;;;;;;4970899;28;20039;-76
2023/02/06 05:57:41;;;;;;;8.02;2.85;;;2.30;99.90;;;;;;4960100;28;20467;-77
2023/02/06 06:00:08;;;;;;;4.55;2.47;;;2.30;99.90;;;;;;4970413;28;20322;-77
2023/02/06 06:02:34;;;;;;;4.55;2.63;;;2.30;99.90;;;;;;4961163;28;20030;-76
2023/02/06 06:04:59;;;;;;;2.75;2.30;;;2.40;99.90;;;;;;4955939;28;20038;-75
2023/02/06 06:07:25;;;;;;;6.57;2.92;;;2.40;99.90;;;;;;4953972;28;20570;-76
2023/02/06 06:09:51;;;;;;;4.78;2.70;;;2.40;99.90;;;;;;4972961;28;20034;-76
2023/02/06 06:12:17;;;;;;;6.40;3.38;;;2.40;99.90;;;;;;4975242;28;20101;-75
2023/02/06 06:14:42;;;;;;;9.20;4.20;;;2.40;99.90;;;;;;4974326;28;20402;-75
2023/02/06 06:17:08;;;;;;;5.70;2.33;;;2.50;99.90;;;;;;4975256;28;20093;-75
2023/02/06 06:19:34;;;;;;;4.50;1.98;;;2.50;99.90;;;;;;4965714;28;20081;-76
2023/02/06 06:22:00;;;;;;;15.70;3.38;;;2.50;99.90;;;;;;4977112;28;20122;-76
2023/02/06 06:24:26;;;;;;;7.47;3.08;;;2.50;99.90;;;;;;4965545;28;20022;-75
2023/02/06 06:26:51;;;;;;;11.38;4.88;;;2.40;99.90;;;;;;4969915;28;20442;-75
2023/02/06 06:29:17;;;;;;;7.05;3.78;;;2.50;99.90;;;;;;4982494;28;20033;-75
2023/02/06 06:31:43;;;;;;;36.25;17.15;;;2.50;99.90;;;;;;4986887;28;20042;-73
2023/02/06 06:34:09;;;;;;;6.45;3.55;;;2.50;99.90;;;;;;4962148;28;20031;-75
2023/02/06 06:36:35;;;;;;;6.97;3.53;;;2.50;99.90;;;;;;4988706;28;20030;-74
2023/02/06 06:39:00;;;;;;;22.52;5.88;;;2.50;99.90;;;;;;4963301;28;20084;-74
2023/02/06 06:41:26;;;;;;;6.07;3.78;;;2.60;99.90;;;;;;4971505;28;20027;-74
2023/02/06 06:43:57;;;;;;;6.47;2.65;;;2.80;99.90;;;;;;4966129;28;20685;-75
2023/02/06 06:46:23;;;;;;;6.70;3.45;;;2.80;99.90;;;;;;4934785;28;20042;-73
2023/02/06 06:48:49;;;;;;;8.88;2.80;;;2.90;99.90;;;;;;4954945;28;20841;-75
2023/02/06 06:51:15;;;;;;;6.10;2.78;;;2.70;99.90;;;;;;4964699;28;20057;-74
2023/02/06 06:53:41;;;;;;;9.40;2.38;;;2.70;99.90;;;;;;4978978;28;20275;-75
2023/02/06 06:56:10;;;;;;;2.90;1.88;;;2.60;99.90;;;;;;4992638;28;20029;-74
2023/02/06 06:58:36;;;;;;;3.08;2.22;;;2.60;99.90;;;;;;4966141;28;20158;-74
2023/02/06 07:01:02;;;;;;;4.78;2.80;;;2.60;99.90;;;;;;4967314;28;20106;-73
2023/02/06 07:03:28;;;;;;;5.95;3.58;;;2.30;99.90;;;;;;4963423;28;20042;-75
2023/02/06 07:05:53;;;;;;;4.70;2.72;;;2.20;99.90;;;;;;4957538;28;20027;-74
2023/02/06 07:08:19;;;;;;;3.97;2.72;;;2.30;99.90;;;;;;4985185;28;20125;-73
2023/02/06 07:10:46;;;;;;;5.18;2.83;;;2.30;99.90;;;;;;4968097;28;20513;-73
2023/02/06 07:13:14;;;;;;;9.75;4.68;;;2.30;99.90;;;;;;4978492;28;20439;-73
2023/02/06 07:15:40;;;;;;;8.65;3.92;;;2.40;99.90;;;;;;4988578;28;20084;-73
2023/02/06 07:18:06;;;;;;;13.38;7.03;;;2.40;99.90;;;;;;4969802;28;20030;-73
2023/02/06 07:20:33;;;;;;;7.03;4.13;;;2.50;99.90;;;;;;4986089;28;20045;-73
2023/02/06 07:23:00;;;;;;;8.85;3.03;;;2.60;99.90;;;;;;4981912;28;20034;-72
2023/02/06 07:25:26;;;;;;;6.05;3.03;;;2.60;99.90;;;;;;4986675;28;20034;-74
2023/02/06 07:27:52;;;;;;;5.22;3.60;;;2.70;99.90;;;;;;4979996;28;20109;-73
2023/02/06 07:30:18;;;;;;;7.18;3.55;;;2.80;99.90;;;;;;4981375;28;20027;-73
2023/02/06 07:32:44;;;;;;;13.77;3.38;;;2.80;99.90;;;;;;4961123;28;20089;-74
2023/02/06 07:35:09;;;;;;;4.68;3.10;;;2.80;99.90;;;;;;4966253;28;20035;-74
2023/02/06 07:37:35;;;;;;;9.07;3.28;;;2.80;99.90;;;;;;4980005;28;20026;-74
2023/02/06 07:40:01;;;;;;;7.60;3.80;;;2.70;99.90;;;;;;4974394;28;20108;-74
2023/02/06 07:42:27;;;;;;;6.40;3.30;;;2.80;99.90;;;;;;4984382;28;20034;-74
2023/02/06 07:44:53;;;;;;;8.70;3.20;;;2.80;99.90;;;;;;4989774;28;20041;-75
2023/02/06 07:47:19;;;;;;;5.97;2.47;;;2.90;99.90;;;;;;4967604;28;20117;-75
2023/02/06 07:49:45;;;;;;;5.85;2.95;;;2.90;99.90;;;;;;4989238;28;20105;-79
2023/02/06 07:52:11;;;;;;;9.95;2.22;;;3.00;99.90;;;;;;4985590;28;20034;-74
2023/02/06 07:54:36;;;;;;;6.40;2.58;;;3.10;99.90;;;;;;4981154;28;20038;-74
2023/02/06 07:57:02;;;;;;;3.97;2.40;;;3.10;99.90;;;;;;4974572;28;20091;-74
2023/02/06 07:59:28;;;;;;;7.63;3.45;;;3.10;99.90;;;;;;4981365;28;20533;-74
2023/02/06 08:01:54;;;;;;;10.20;4.82;;;3.20;99.90;;;;;;4981197;28;20042;-74
2023/02/06 08:04:19;;;;;;;6.85;3.08;;;3.20;99.90;;;;;;4959640;28;20393;-75
2023/02/06 08:06:45;;;;;;;8.45;4.00;;;3.30;99.90;;;;;;4988005;28;20037;-75
2023/02/06 08:09:16;;;;;;;8.63;3.70;;;3.30;99.90;;;;;;4985128;28;20042;-75
2023/02/06 08:11:42;;;;;;;5.65;3.15;;;3.30;99.90;;;;;;4987697;28;20394;-76
2023/02/06 08:14:07;;;;;;;4.00;2.95;;;3.20;99.90;;;;;;4984672;28;20042;-76
2023/02/06 08:16:33;;;;;;;4.53;2.70;;;3.20;99.90;;;;;;4983970;28;20509;-75
2023/02/06 08:18:59;;;;;;;5.57;2.72;;;3.20;99.90;;;;;;4967414;28;20085;-76
2023/02/06 08:21:24;;;;;;;8.38;3.50;;;3.20;99.90;;;;;;4958821;28;20049;-77
2023/02/06 08:23:56;;;;;;;5.05;2.40;;;3.20;99.90;;;;;;4955427;28;20034;-75
2023/02/06 08:26:23;;;;;;;7.68;3.38;;;3.10;99.90;;;;;;4971031;28;20089;-75
2023/02/06 08:28:50;;;;;;;6.97;2.58;;;3.00;99.90;;;;;;4951289;28;20154;-76
2023/02/06 08:31:29;;;;;;;5.40;2.55;;;3.10;99.90;;;;;;4970408;28;20385;-77
2023/02/06 08:33:55;;;;;;;3.80;2.67;;;3.00;99.90;;;;;;4984730;28;20045;-76
2023/02/06 08:36:23;;;;;;;4.72;2.65;;;3.10;99.90;;;;;;4973393;28;20030;-76
2023/02/06 08:38:50;;;;;;;14.70;5.03;;;3.20;99.90;;;;;;4960253;28;20043;-75
2023/02/06 08:41:23;;;;;;;31.13;10.85;;;3.20;99.90;;;;;;4954503;28;20032;-77
2023/02/06 08:43:52;;;;;;;32.58;14.98;;;3.30;99.90;;;;;;4964350;28;20045;-76
2023/02/06 08:46:20;;;;;;;7.55;3.58;;;3.40;99.90;;;;;;4954254;28;20034;-77
2023/02/06 08:48:46;;;;;;;5.47;3.20;;;3.50;99.90;;;;;;4964086;28;20022;-77
2023/02/06 08:51:14;;;;;;;5.68;2.53;;;3.60;99.90;;;;;;4962587;28;20031;-76
2023/02/06 08:53:40;;;;;;;12.90;4.03;;;3.60;99.90;;;;;;4950967;28;20120;-76
2023/02/06 08:56:09;;;;;;;6.47;3.15;;;3.70;99.90;;;;;;4970147;28;20060;-76
2023/02/06 08:58:37;;;;;;;4.70;3.00;;;3.70;99.90;;;;;;4967223;28;20049;-76
2023/02/06 09:01:15;;;;;;;8.10;2.97;;;3.70;99.90;;;;;;4950251;28;20062;-77
2023/02/06 09:03:42;;;;;;;5.53;2.75;;;3.80;99.90;;;;;;4983725;28;20030;-76
2023/02/06 09:06:09;;;;;;;4.65;2.97;;;3.80;99.90;;;;;;4987016;28;20023;-76
2023/02/06 09:08:35;;;;;;;4.47;2.22;;;3.80;99.90;;;;;;4966771;28;20122;-76
2023/02/06 09:11:16;;;;;;;7.90;4.60;;;3.70;99.90;;;;;;4966179;28;20102;-76
2023/02/06 09:13:44;;;;;;;4.07;2.75;;;3.80;99.90;;;;;;4983540;28;20037;-76
2023/02/06 09:16:10;;;;;;;12.43;2.97;;;3.80;99.90;;;;;;4986255;28;20034;-78
2023/02/06 09:18:36;;;;;;;16.75;3.53;;;3.70;99.90;;;;;;4966425;28;20034;-77
2023/02/06 09:21:20;;;;;;;7.03;3.22;;;3.90;99.90;;;;;;4969563;28;20505;-76
2023/02/06 09:23:53;;;;;;;3.80;2.55;;;4.00;99.90;;;;;;4966296;28;20039;-73
2023/02/06 09:26:29;;;;;;;6.55;3.22;;;3.80;99.90;;;;;;4969978;28;20022;-75
2023/02/06 09:28:57;;;;;;;8.38;2.72;;;4.10;99.90;;;;;;4983747;28;20029;-73
2023/02/06 09:31:24;;;;;;;7.20;3.05;;;4.00;99.90;;;;;;4986329;28;20474;-73
2023/02/06 09:33:51;;;;;;;5.78;2.85;;;4.10;99.90;;;;;;4949956;28;20088;-74
2023/02/06 09:36:19;;;;;;;6.75;3.22;;;4.30;99.90;;;;;;4968889;28;20026;-73
2023/02/06 09:38:52;;;;;;;6.50;2.92;;;4.40;99.90;;;;;;4950307;28;20165;-73
2023/02/06 09:41:32;;;;;;;5.50;3.00;;;4.40;99.90;;;;;;4970004;28;20108;-78
2023/02/06 09:44:14;;;;;;;5.73;3.07;;;4.20;99.90;;;;;;4983198;28;20457;-73
2023/02/06 09:47:17;;;;;;;6.57;2.90;;;4.40;99.90;;;;;;4970476;28;20104;-74
2023/02/06 09:49:57;;;;;;;6.82;2.45;;;4.50;99.90;;;;;;4964806;28;20097;-76
2023/02/06 09:52:38;;;;;;;7.93;3.78;;;4.50;99.90;;;;;;4979436;28;20739;-74
2023/02/06 09:55:30;;;;;;;7.07;3.37;;;4.20;99.90;;;;;;4989237;28;20401;-73
2023/02/06 09:58:21;;;;;;;4.53;2.50;;;4.20;99.90;;;;;;4975094;28;20035;-73
2023/02/06 10:01:17;;;;;;;9.70;3.58;;;4.20;99.90;;;;;;4954409;28;20489;-74
2023/02/06 10:03:54;;;;;;;13.43;4.57;;;4.20;99.90;;;;;;4963007;28;20117;-73
2023/02/06 10:06:26;;;;;;;4.63;3.40;;;4.30;99.90;;;;;;4970030;28;20109;-72
2023/02/06 10:09:11;;;;;;;6.25;3.53;;;4.60;99.90;;;;;;4959903;28;20041;-74
2023/02/06 10:11:44;;;;;;;5.03;2.65;;;4.70;99.90;;;;;;4935676;29;20073;-73
2023/02/06 10:14:43;;;;;;;5.05;2.38;;;4.70;99.90;;;;;;4980887;28;20049;-74
2023/02/06 10:17:25;;;;;;;4.45;2.58;;;4.70;99.90;;;;;;4988525;28;20035;-73
2023/02/06 10:20:17;;;;;;;4.82;2.67;;;4.40;99.90;;;;;;4965790;28;20033;-74
2023/02/06 10:23:11;;;;;;;6.43;2.60;;;4.30;99.90;;;;;;4949548;28;20034;-74
2023/02/06 10:26:17;;;;;;;5.68;2.78;;;4.40;99.90;;;;;;4949369;28;20089;-73
2023/02/06 10:28:51;;;;;;;6.13;2.50;;;4.50;99.90;;;;;;4961693;28;20086;-74
2023/02/06 10:31:35;;;;;;;4.60;2.53;;;4.70;99.90;;;;;;4973423;28;20037;-74
2023/02/06 10:34:22;;;;;;;5.57;2.83;;;4.90;99.90;;;;;;4963494;28;20027;-73
2023/02/06 10:36:50;;;;;;;8.57;3.55;;;4.90;99.90;;;;;;4968280;28;20037;-73
2023/02/06 10:40:17;;;;;;;3.88;2.53;;;5.10;99.90;;;;;;4979507;28;20109;-73
2023/02/06 10:42:54;;;;;;;8.43;3.17;;;5.00;99.90;;;;;;4945195;28;20037;-74
2023/02/06 10:45:41;;;;;;;4.13;2.17;;;5.10;99.90;;;;;;5004806;22;20115;-70
2023/02/06 10:48:49;;;;;;;6.60;3.38;;;5.10;99.90;;;;;;5029914;28;20072;-70
2023/02/06 10:51:25;;;;;;;5.20;2.60;;;5.20;99.90;;;;;;5008937;28;20045;-70
2023/02/06 10:54:03;;;;;;;4.90;2.72;;;5.30;99.90;;;;;;5008927;28;20417;-70
2023/02/06 10:56:43;;;;;;;8.32;3.67;;;5.50;99.90;;;;;;4990594;28;20034;-70
2023/02/06 10:59:38;;;;;;;7.80;2.67;;;5.60;99.90;;;;;;5006895;28;20850;-70
2023/02/06 11:02:37;;;;;;;6.57;3.47;;;5.50;99.90;;;;;;5000171;28;20038;-70
2023/02/06 11:05:28;;;;;;;5.35;2.20;;;5.90;99.90;;;;;;4994854;28;20026;-70
2023/02/06 11:07:58;;;;;;;5.72;2.63;;;6.00;99.90;;;;;;5014903;28;20048;-70
2023/02/06 11:10:25;;;;;;;5.85;1.98;;;6.10;99.90;;;;;;5005920;28;20030;-70
2023/02/06 11:13:13;;;;;;;9.52;2.58;;;6.20;99.90;;;;;;5021885;28;20035;-72
2023/02/06 11:16:00;;;;;;;2.65;1.85;;;6.20;99.90;;;;;;5004432;28;20556;-73
2023/02/06 11:18:41;;;;;;;6.70;2.47;;;6.10;99.90;;;;;;4991009;28;20091;-72
2023/02/06 11:21:09;;;;;;;11.48;2.60;;;6.20;99.90;;;;;;4987814;28;20030;-73
2023/02/06 11:23:35;;;;;;;6.43;2.45;;;7.90;99.90;;;;;;4974244;28;20040;-74
2023/02/06 11:26:17;;;;;;;5.97;2.13;;;8.90;99.90;;;;;;5004670;28;20553;-75
2023/02/06 11:29:07;;;;;;;4.10;2.33;;;9.90;99.90;;;;;;4997065;28;20037;-73
2023/02/06 11:31:42;;;;;;;6.07;2.42;;;10.10;99.90;;;;;;4995804;28;20125;-73
2023/02/06 11:34:52;;;;;;;5.22;2.33;;;9.10;99.90;;;;;;5002855;28;20069;-74
2023/02/06 11:37:51;;;;;;;8.45;3.15;;;8.40;99.90;;;;;;4985033;28;20042;-74
2023/02/06 11:40:17;;;;;;;5.35;2.70;;;7.70;99.90;;;;;;5004174;28;20050;-73
2023/02/06 11:42:55;;;;;;;4.18;2.40;;;7.40;99.90;;;;;;5017129;28;20201;-72
2023/02/06 11:45:31;;;;;;;2.42;1.58;;;6.70;99.90;;;;;;5006939;28;20511;-73
2023/02/06 11:47:58;;;;;;;5.90;2.35;;;6.10;99.90;;;;;;4985981;28;20029;-75
2023/02/06 11:50:34;;;;;;;8.95;2.60;;;5.80;99.90;;;;;;5007018;28;20506;-74
2023/02/06 11:53:16;;;;;;;6.07;2.25;;;6.20;99.90;;;;;;5016802;28;20400;-73
2023/02/06 11:55:45;;;;;;;5.38;2.47;;;6.70;99.90;;;;;;4987012;28;20498;-73
2023/02/06 11:58:11;;;;;;;6.57;2.55;;;7.10;99.90;;;;;;5020338;28;20030;-76
2023/02/06 12:00:50;;;;;;;3.80;1.45;;;7.40;99.90;;;;;;5018968;28;20408;-73
2023/02/06 12:03:31;;;;;;;3.22;1.55;;;7.20;99.90;;;;;;4994403;28;20103;-73
2023/02/06 12:06:12;;;;;;;3.92;1.80;;;7.30;99.90;;;;;;5015512;28;20037;-74
2023/02/06 12:08:50;;;;;;;2.40;1.67;;;7.80;99.90;;;;;;4984052;28;20038;-73
2023/02/06 12:11:24;;;;;;;2.00;1.17;;;7.90;99.90;;;;;;5030626;28;20489;-70
2023/02/06 12:14:18;;;;;;;4.45;1.75;;;6.70;99.90;;;;;;5018312;28;20030;-70
2023/02/06 12:16:45;;;;;;;3.20;1.75;;;6.40;99.90;;;;;;4972041;28;20137;-71
2023/02/06 12:19:23;;;;;;;4.82;1.83;;;6.90;99.90;;;;;;5004531;28;20031;-70
2023/02/06 12:21:54;;;;;;;4.57;1.65;;;6.70;99.90;;;;;;4991057;28;20399;-71
2023/02/06 12:24:31;;;;;;;;;;;6.80;99.90;;;;;;4995999;28;20026;-70
2023/02/06 12:27:05;;;;;;;5.35;1.67;;;6.60;99.90;;;;;;4983864;28;19984;-70
2023/02/06 12:29:40;;;;;;;3.85;1.75;;;6.60;99.90;;;;;;4993406;28;20041;-70
2023/02/06 12:32:18;;;;;;;3.97;1.15;;;6.90;99.90;;;;;;5010592;28;20017;-70
2023/02/06 12:34:59;;;;;;;2.58;1.23;;;7.00;99.90;;;;;;4994102;28;20021;-70
2023/02/06 12:37:43;;;;;;;2.90;1.63;;;7.40;99.90;;;;;;4992207;28;20490;-71
2023/02/06 12:40:33;;;;;;;10.32;4.45;;;7.00;99.90;;;;;;5004060;28;20037;-71
2023/02/06 12:43:18;;;;;;;4.93;2.03;;;6.80;99.90;;;;;;5013146;28;20037;-70
2023/02/06 12:46:07;;;;;;;5.88;3.65;;;6.60;99.90;;;;;;5026826;28;20021;-72
2023/02/06 12:49:06;;;;;;;3.78;1.92;;;6.60;99.90;;;;;;5006264;28;20044;-70
2023/02/06 12:51:54;;;;;;;9.15;2.50;;;6.50;99.90;;;;;;4998619;28;20059;-71
2023/02/06 12:54:32;;;;;;;3.42;1.17;;;6.60;99.90;;;;;;4975432;28;20546;-71
2023/02/06 12:57:18;;;;;;;2.97;1.13;;;6.70;99.90;;;;;;5000843;28;20517;-71
2023/02/06 13:00:30;;;;;;;2.97;1.25;;;7.80;99.90;;;;;;5006787;28;20038;-71
2023/02/06 13:03:17;;;;;;;2.60;1.33;;;10.10;99.90;;;;;;4992750;28;20046;-71
2023/02/06 13:06:11;;;;;;;2.00;1.05;;;10.50;98.00;;;;;;5026702;28;20057;-71
2023/02/06 13:08:59;;;;;;;2.75;1.30;;;12.30;93.70;;;;;;5014436;28;20042;-70
2023/02/06 13:11:39;;;;;;;2.95;1.35;;;9.70;96.40;;;;;;4975908;28;20089;-69
2023/02/06 13:14:28;;;;;;;3.35;1.38;;;9.30;97.80;;;;;;4998210;28;20113;-70
2023/02/06 13:17:09;;;;;;;3.72;2.15;;;8.00;99.90;;;;;;5006154;28;20052;-70
2023/02/06 13:19:40;;;;;;;1.17;0.90;;;9.10;99.90;;;;;;5026431;28;20045;-69
2023/02/06 13:22:09;;;;;;;1.98;0.98;;;9.10;99.90;;;;;;5018052;28;20065;-69
2023/02/06 13:24:50;;;;;;;12.77;2.08;;;9.10;99.90;;;;;;5007860;28;20540;-70
2023/02/06 13:27:24;;;;;;;3.63;1.27;;;8.30;99.90;;;;;;5023196;28;20025;-69